createdAt,value
2017-11-13T00:02:51.415Z,98412.23
2017-11-13T00:08:54.850Z,98430.22
2017-11-13T00:14:58.328Z,98439.78
2017-11-13T00:21:01.773Z,98440.25
2017-11-13T00:27:05.248Z,98458.10
2017-11-13T00:33:08.704Z,98458.28
2017-11-13T00:39:12.960Z,98464.09
2017-11-13T00:45:16.413Z,98479.06
2017-11-13T00:51:19.876Z,98485.13
2017-11-13T00:57:24.128Z,98478.34
2017-11-13T01:03:27.589Z,98482.80
2017-11-13T01:09:31.076Z,98495.08
2017-11-13T01:15:34.529Z,98497.45
2017-11-13T01:21:38.769Z,98493.47
2017-11-13T01:27:42.241Z,98488.57
2017-11-13T01:33:45.719Z,98492.14
2017-11-13T01:39:49.177Z,98507.30
2017-11-13T01:45:53.403Z,98518.30
2017-11-13T01:51:56.866Z,98526.58
2017-11-13T01:58:00.337Z,98525.03
2017-11-13T02:04:03.794Z,98530.69
2017-11-13T02:10:07.267Z,98541.46
2017-11-13T02:16:10.740Z,98550.05
2017-11-13T02:22:14.183Z,98561.34
2017-11-13T02:28:18.410Z,98579.04
2017-11-13T02:34:21.869Z,98585.61
2017-11-13T02:40:26.089Z,98594.91
2017-11-13T02:46:29.521Z,98604.83
2017-11-13T02:52:32.974Z,98615.30
2017-11-13T02:58:36.425Z,98616.22
2017-11-13T03:04:40.670Z,98620.98
2017-11-13T03:10:44.134Z,98628.41
2017-11-13T03:16:47.597Z,98631.64
2017-11-13T03:22:51.084Z,98642.02
2017-11-13T03:28:54.548Z,98635.88
2017-11-13T03:34:58.796Z,98654.19
2017-11-13T03:41:02.257Z,98665.06
2017-11-13T03:47:05.745Z,98671.70
2017-11-13T03:53:09.179Z,98679.23
2017-11-13T03:59:12.649Z,98693.52
2017-11-13T04:05:16.222Z,98696.31
2017-11-13T04:11:19.681Z,98707.02
2017-11-13T04:17:23.181Z,98709.59
2017-11-13T04:23:26.656Z,98716.89
2017-11-13T04:29:30.127Z,98731.16
2017-11-13T04:35:33.582Z,98729.51
2017-11-13T04:41:37.844Z,98736.15
2017-11-13T04:47:41.318Z,98745.38
2017-11-13T04:53:44.787Z,98766.83
2017-11-13T04:59:48.250Z,98775.47
2017-11-13T05:05:52.452Z,98778.58
2017-11-13T05:11:56.681Z,98781.02
2017-11-13T05:18:00.143Z,98793.27
2017-11-13T05:24:03.702Z,98787.77
2017-11-13T05:30:07.154Z,98793.56
2017-11-13T05:36:10.619Z,98798.59
2017-11-13T05:42:14.043Z,98807.28
2017-11-13T05:48:17.540Z,98823.08
2017-11-13T05:54:21.762Z,98827.37
2017-11-13T06:00:25.227Z,98824.84
2017-11-13T06:06:29.454Z,98829.27
2017-11-13T06:12:32.918Z,98843.80
2017-11-13T06:18:37.168Z,98860.70
2017-11-13T06:24:40.621Z,98862.70
2017-11-13T06:30:44.080Z,98879.59
2017-11-13T06:36:48.313Z,98887.02
2017-11-13T06:42:51.918Z,98908.58
2017-11-13T06:48:55.438Z,98919.05
2017-11-13T06:54:58.894Z,98936.65
2017-11-13T07:01:02.370Z,98944.89
2017-11-13T07:07:05.827Z,98957.15
2017-11-13T07:13:09.298Z,98966.35
2017-11-13T07:19:13.538Z,98986.16
2017-11-13T07:25:17.011Z,98993.11
2017-11-13T07:31:20.470Z,99013.02
2017-11-13T07:37:24.703Z,99012.64
2017-11-13T07:43:28.177Z,99022.91
2017-11-13T07:49:31.629Z,99030.27
2017-11-13T07:55:35.840Z,99043.05
2017-11-13T08:01:40.082Z,99050.42
2017-11-13T08:07:43.551Z,99055.95
2017-11-13T08:13:47.032Z,99069.42
2017-11-13T08:19:50.500Z,99070.13
2017-11-13T08:25:53.976Z,99068.80
2017-11-13T08:31:58.190Z,99075.83
2017-11-13T08:38:01.652Z,99080.97
2017-11-13T08:44:05.891Z,99098.77
2017-11-13T08:50:09.318Z,99108.23
2017-11-13T08:56:12.829Z,99117.06
2017-11-13T09:02:16.327Z,99135.14
2017-11-13T09:08:19.783Z,99149.56
2017-11-13T09:14:24.011Z,99153.02
2017-11-13T09:20:27.487Z,99161.31
2017-11-13T09:26:31.824Z,99182.75
2017-11-13T09:32:35.267Z,99185.86
2017-11-13T09:38:39.519Z,99206.58
2017-11-13T09:44:42.975Z,99214.98
2017-11-13T09:50:46.444Z,99206.55
2017-11-13T09:56:50.665Z,99223.46
2017-11-13T10:02:54.121Z,99228.45
2017-11-13T10:08:58.399Z,99233.46
2017-11-13T10:15:02.665Z,99249.05
2017-11-13T10:21:06.121Z,99235.73
2017-11-13T10:27:09.567Z,99249.10
2017-11-13T10:33:13.019Z,99250.98
2017-11-13T10:39:16.477Z,99261.04
2017-11-13T10:45:19.918Z,99264.84
2017-11-13T10:51:23.385Z,99268.31
2017-11-13T10:57:26.882Z,99286.33
2017-11-13T11:03:30.341Z,99294.95
2017-11-13T11:09:33.808Z,99310.66
2017-11-13T11:15:38.144Z,99311.30
2017-11-13T11:21:43.493Z,99331.02
2017-11-13T11:27:46.960Z,99329.53
2017-11-13T11:33:50.794Z,99337.63
2017-11-13T11:39:54.352Z,99339.06
2017-11-13T11:46:01.253Z,99342.93
2017-11-13T11:52:04.697Z,99343.36
2017-11-13T11:58:08.153Z,99343.91
2017-11-13T12:04:11.619Z,99341.08
2017-11-13T12:10:15.087Z,99347.30
2017-11-13T12:16:18.559Z,99350.70
2017-11-13T12:22:22.039Z,99350.66
2017-11-13T12:28:26.277Z,99354.03
2017-11-13T12:34:29.761Z,99360.52
2017-11-13T12:40:33.227Z,99360.13
2017-11-13T12:46:36.689Z,99356.20
2017-11-13T12:52:40.906Z,99365.33
2017-11-13T12:58:44.386Z,99371.45
2017-11-13T13:04:47.841Z,99372.88
2017-11-13T13:10:51.324Z,99371.80
2017-11-13T13:16:54.779Z,99375.31
2017-11-13T13:22:58.248Z,99379.39
2017-11-13T13:29:01.745Z,99395.35
2017-11-13T13:35:05.179Z,99405.30
2017-11-13T13:41:09.404Z,99405.37
2017-11-13T13:47:12.862Z,99419.75
2017-11-13T13:53:17.104Z,99430.40
2017-11-13T13:59:20.584Z,99428.27
2017-11-13T14:05:24.102Z,99433.48
2017-11-13T14:11:27.654Z,99450.69
2017-11-13T14:17:31.100Z,99443.81
2017-11-13T14:23:35.333Z,99441.48
2017-11-13T14:29:38.784Z,99448.35
2017-11-13T14:35:43.005Z,99459.48
2017-11-13T14:41:46.521Z,99461.63
2017-11-13T14:47:50.137Z,99464.11
2017-11-13T14:53:53.606Z,99459.82
2017-11-13T14:59:57.110Z,99472.42
2017-11-13T15:06:01.347Z,99487.84
2017-11-13T15:12:04.808Z,99494.05
2017-11-13T15:18:09.055Z,99504.22
2017-11-13T15:24:12.506Z,99509.70
2017-11-13T15:30:15.977Z,99520.81
2017-11-13T15:36:20.221Z,99516.33
2017-11-13T15:42:23.694Z,99535.61
2017-11-13T15:48:27.174Z,99537.57
2017-11-13T15:54:30.624Z,99541.66
2017-11-13T16:00:34.850Z,99553.51
2017-11-13T16:06:38.320Z,99567.06
2017-11-13T16:12:42.570Z,99565.15
2017-11-13T16:18:46.036Z,99570.81
2017-11-13T16:24:49.507Z,99583.45
2017-11-13T16:30:52.964Z,99571.86
2017-11-13T16:36:57.216Z,99587.68
2017-11-13T16:43:00.713Z,99597.27
2017-11-13T16:49:04.205Z,99611.80
2017-11-13T16:55:07.772Z,99614.48
2017-11-13T17:01:11.362Z,99633.02
2017-11-13T17:07:14.912Z,99623.31
2017-11-13T17:13:18.452Z,99638.09
2017-11-13T17:19:22.330Z,99649.55
2017-11-13T17:25:25.776Z,99648.87
2017-11-13T17:31:29.255Z,99660.95
2017-11-13T17:37:32.737Z,99676.02
2017-11-13T17:43:36.853Z,99670.45
2017-11-13T17:49:40.351Z,99674.88
2017-11-13T17:55:43.821Z,99700.45
2017-11-13T18:01:47.275Z,99706.20
2017-11-13T18:07:51.489Z,99718.25
2017-11-13T18:13:54.946Z,99729.84
2017-11-13T18:19:58.391Z,99727.08
2017-11-13T18:26:01.869Z,99743.18
2017-11-13T18:32:05.321Z,99737.95
2017-11-13T18:38:09.706Z,99732.46
2017-11-13T18:44:13.935Z,99739.52
2017-11-13T18:50:17.461Z,99747.79
2017-11-13T18:56:21.008Z,99750.78
2017-11-13T19:02:24.473Z,99756.65
2017-11-13T19:08:29.035Z,99755.72
2017-11-13T19:14:32.503Z,99760.86
2017-11-13T19:20:35.966Z,99755.27
2017-11-13T19:26:39.421Z,99755.57
2017-11-13T19:32:42.882Z,99745.81
2017-11-13T19:38:46.357Z,99761.09
2017-11-13T19:44:50.234Z,99766.38
2017-11-13T19:50:53.712Z,99780.81
2017-11-13T19:56:57.163Z,99793.38
2017-11-13T20:03:01.387Z,99790.50
2017-11-13T20:09:04.823Z,99796.01
2017-11-13T20:15:08.290Z,99801.97
2017-11-13T20:21:11.739Z,99801.97
2017-11-13T20:27:15.231Z,99802.16
2017-11-13T20:33:18.681Z,99808.05
2017-11-13T20:39:22.928Z,99810.40
2017-11-13T20:45:26.356Z,99819.52
2017-11-13T20:51:30.608Z,99827.65
2017-11-13T20:57:34.073Z,99819.28
2017-11-13T21:03:37.530Z,99819.78
2017-11-13T21:09:41.764Z,99825.34
2017-11-13T21:15:45.235Z,99822.56
2017-11-13T21:21:48.709Z,99827.27
2017-11-13T21:27:52.937Z,99832.83
2017-11-13T21:33:56.418Z,99849.46
2017-11-13T21:39:59.890Z,99841.87
2017-11-13T21:46:03.369Z,99849.20
2017-11-13T21:52:06.861Z,99856.80
2017-11-13T21:58:10.331Z,99858.22
2017-11-13T22:04:13.957Z,99851.89
2017-11-13T22:10:17.406Z,99855.69
2017-11-13T22:16:20.863Z,99862.52
2017-11-13T22:22:24.327Z,99867.97
2017-11-13T22:28:27.785Z,99863.45
2017-11-13T22:34:31.272Z,99872.53
2017-11-13T22:40:34.753Z,99866.09
2017-11-13T22:46:38.364Z,99876.97
2017-11-13T22:52:41.829Z,99866.63
2017-11-13T22:58:45.338Z,99868.57
2017-11-13T23:04:48.782Z,99881.52
2017-11-13T23:10:52.246Z,99882.00
2017-11-13T23:16:55.693Z,99877.31
2017-11-13T23:22:59.424Z,99889.23
2017-11-13T23:29:02.882Z,99899.78
2017-11-13T23:35:07.118Z,99894.48
2017-11-13T23:41:10.576Z,99896.52
2017-11-13T23:47:14.825Z,99903.32
2017-11-13T23:53:18.306Z,99895.23
2017-11-13T23:59:21.764Z,99899.04
